createdAt,value
2022-09-12T00:00:52.520Z,8.07
2022-09-12T00:03:19.181Z,8.63
2022-09-12T00:05:47.453Z,8.55
2022-09-12T00:08:14.402Z,8.15
2022-09-12T00:10:42.091Z,8.48
2022-09-12T00:13:09.103Z,9.27
2022-09-12T00:15:40.187Z,8.98
2022-09-12T00:18:07.146Z,8.50
2022-09-12T00:20:33.696Z,8.52
2022-09-12T00:23:00.808Z,8.68
2022-09-12T00:25:27.754Z,9.52
2022-09-12T00:27:54.347Z,8.43
2022-09-12T00:30:20.927Z,9.65
2022-09-12T00:32:47.549Z,8.85
2022-09-12T00:35:14.222Z,9.60
2022-09-12T00:37:40.830Z,9.18
2022-09-12T00:40:07.911Z,8.65
2022-09-12T00:42:34.653Z,8.75
2022-09-12T00:45:01.239Z,9.20
2022-09-12T00:47:28.636Z,8.23
2022-09-12T00:50:03.997Z,8.30
2022-09-12T00:52:34.505Z,8.68
2022-09-12T00:55:11.715Z,9.30
2022-09-12T00:57:52.255Z,8.88
2022-09-12T01:00:21.904Z,8.88
2022-09-12T01:03:13.161Z,8.70
2022-09-12T01:05:44.327Z,8.95
2022-09-12T01:08:11.028Z,8.65
2022-09-12T01:10:39.013Z,9.25
2022-09-12T01:13:07.176Z,9.85
2022-09-12T01:15:34.089Z,9.23
2022-09-12T01:18:12.274Z,9.27
2022-09-12T01:20:50.786Z,9.25
2022-09-12T01:23:20.371Z,10.05
2022-09-12T01:26:01.122Z,9.07
2022-09-12T01:28:37.245Z,9.23
2022-09-12T01:31:25.345Z,9.48
2022-09-12T01:34:10.645Z,8.75
2022-09-12T01:36:48.355Z,9.00
2022-09-12T01:39:36.940Z,9.25
2022-09-12T01:42:26.365Z,9.23
2022-09-12T01:45:04.498Z,9.65
2022-09-12T01:47:40.687Z,8.45
2022-09-12T01:50:08.574Z,9.85
2022-09-12T01:52:35.041Z,9.43
2022-09-12T01:55:42.017Z,9.30
2022-09-12T01:58:21.004Z,8.90
2022-09-12T02:00:49.823Z,9.98
2022-09-12T02:03:20.135Z,9.38
2022-09-12T02:05:53.864Z,9.20
2022-09-12T02:08:48.494Z,9.57
2022-09-12T02:11:15.654Z,11.25
2022-09-12T02:13:58.090Z,11.95
2022-09-12T02:16:37.909Z,11.03
2022-09-12T02:19:11.277Z,11.02
2022-09-12T02:21:37.873Z,11.50
2022-09-12T02:24:04.668Z,10.77
2022-09-12T02:27:04.605Z,10.70
2022-09-12T02:29:31.359Z,10.23
2022-09-12T02:32:05.248Z,10.30
2022-09-12T02:34:43.994Z,11.07
2022-09-12T02:37:46.267Z,10.00
2022-09-12T02:40:12.946Z,9.90
2022-09-12T02:42:39.595Z,9.75
2022-09-12T02:45:06.800Z,11.15
2022-09-12T02:47:43.511Z,11.15
2022-09-12T02:50:10.118Z,10.60
2022-09-12T02:52:36.854Z,10.57
2022-09-12T02:55:05.261Z,10.20
2022-09-12T02:57:32.128Z,11.32
2022-09-12T03:00:00.442Z,10.15
2022-09-12T03:02:58.766Z,9.27
2022-09-12T03:05:31.701Z,10.50
2022-09-12T03:08:10.332Z,11.07
2022-09-12T03:10:45.863Z,9.82
2022-09-12T03:13:21.658Z,9.98
2022-09-12T03:15:54.127Z,9.55
2022-09-12T03:18:33.155Z,10.73
2022-09-12T03:21:14.339Z,9.95
2022-09-12T03:23:45.847Z,10.23
2022-09-12T03:26:16.082Z,9.75
2022-09-12T03:28:43.034Z,12.05
2022-09-12T03:31:17.036Z,10.68
2022-09-12T03:33:43.820Z,11.00
2022-09-12T03:36:30.876Z,10.52
2022-09-12T03:38:57.527Z,11.13
2022-09-12T03:41:24.144Z,11.43
2022-09-12T03:43:50.795Z,10.98
2022-09-12T03:46:17.317Z,10.20
2022-09-12T03:48:43.922Z,10.13
2022-09-12T03:51:11.021Z,10.80
2022-09-12T03:53:37.629Z,11.35
2022-09-12T03:56:11.237Z,10.45
2022-09-12T03:58:38.375Z,11.00
2022-09-12T04:01:13.039Z,11.63
2022-09-12T04:03:40.724Z,10.27
2022-09-12T04:06:07.925Z,11.43
2022-09-12T04:08:35.540Z,10.40
2022-09-12T04:11:04.082Z,10.18
2022-09-12T04:13:30.711Z,9.75
2022-09-12T04:15:58.692Z,11.20
2022-09-12T04:18:25.691Z,10.90
2022-09-12T04:20:52.233Z,10.23
2022-09-12T04:23:19.165Z,9.88
2022-09-12T04:25:53.350Z,8.38
2022-09-12T04:28:20.198Z,9.57
2022-09-12T04:30:46.831Z,8.90
2022-09-12T04:33:13.515Z,8.98
2022-09-12T04:35:40.139Z,8.32
2022-09-12T04:38:06.723Z,8.48
2022-09-12T04:40:33.521Z,8.98
2022-09-12T04:43:00.087Z,9.05
2022-09-12T04:45:26.671Z,8.60
2022-09-12T04:47:53.610Z,7.93
2022-09-12T04:50:20.199Z,8.07
2022-09-12T04:52:53.782Z,8.73
2022-09-12T04:55:21.443Z,8.18
2022-09-12T04:57:48.060Z,7.82
2022-09-12T05:00:15.200Z,7.35
2022-09-12T05:02:42.957Z,6.97
2022-09-12T05:05:10.221Z,7.63
2022-09-12T05:07:36.834Z,7.63
2022-09-12T05:10:04.715Z,8.13
2022-09-12T05:12:31.721Z,7.97
2022-09-12T05:14:58.268Z,8.10
2022-09-12T05:17:24.840Z,8.70
2022-09-12T05:19:51.395Z,8.15
2022-09-12T05:22:17.984Z,8.10
2022-09-12T05:24:49.878Z,8.00
2022-09-12T05:27:17.128Z,7.88
2022-09-12T05:29:43.714Z,8.00
2022-09-12T05:32:12.760Z,7.57
2022-09-12T05:34:40.327Z,8.07
2022-09-12T05:37:06.948Z,8.40
2022-09-12T05:39:33.802Z,7.80
2022-09-12T05:42:00.683Z,7.70
2022-09-12T05:44:28.300Z,7.97
2022-09-12T05:46:54.863Z,8.13
2022-09-12T05:49:21.817Z,8.27
2022-09-12T05:51:48.458Z,9.02
2022-09-12T05:54:18.132Z,9.80
2022-09-12T05:56:45.037Z,9.15
2022-09-12T05:59:17.025Z,9.57
2022-09-12T06:01:44.026Z,10.57
2022-09-12T06:04:10.749Z,9.75
2022-09-12T06:06:41.603Z,10.40
2022-09-12T06:09:08.302Z,9.40
2022-09-12T06:11:37.390Z,9.38
2022-09-12T06:14:04.103Z,9.52
2022-09-12T06:16:32.988Z,10.27
2022-09-12T06:19:01.843Z,10.45
2022-09-12T06:21:30.781Z,10.68
2022-09-12T06:23:58.923Z,9.63
2022-09-12T06:26:25.830Z,10.15
2022-09-12T06:28:54.053Z,10.35
2022-09-12T06:31:25.800Z,11.02
2022-09-12T06:33:54.400Z,10.02
2022-09-12T06:36:21.267Z,10.10
2022-09-12T06:38:48.851Z,10.85
2022-09-12T06:41:15.907Z,10.70
2022-09-12T06:43:42.842Z,10.32
2022-09-12T06:46:10.599Z,11.10
2022-09-12T06:48:42.950Z,12.02
2022-09-12T06:51:11.501Z,12.80
2022-09-12T06:53:38.249Z,12.60
2022-09-12T06:56:09.038Z,13.45
2022-09-12T06:58:36.040Z,12.02
2022-09-12T07:01:03.550Z,12.63
2022-09-12T07:03:30.206Z,14.05
2022-09-12T07:05:56.753Z,14.75
2022-09-12T07:08:23.472Z,14.63
2022-09-12T07:10:50.063Z,14.68
2022-09-12T07:13:16.599Z,15.32
2022-09-12T07:15:43.202Z,14.32
2022-09-12T07:18:10.596Z,14.02
2022-09-12T07:20:37.230Z,14.35
2022-09-12T07:23:03.790Z,13.68
2022-09-12T07:25:30.335Z,14.85
2022-09-12T07:27:56.888Z,14.80
2022-09-12T07:30:23.570Z,13.85
2022-09-12T07:32:54.047Z,14.02
2022-09-12T07:35:21.396Z,14.05
2022-09-12T07:37:47.982Z,13.05
2022-09-12T07:40:14.763Z,13.88
2022-09-12T07:42:41.394Z,12.07
2022-09-12T07:45:08.356Z,11.95
2022-09-12T07:47:35.341Z,12.50
2022-09-12T07:50:02.430Z,10.45
2022-09-12T07:52:29.546Z,9.82
2022-09-12T07:54:56.138Z,8.80
2022-09-12T07:57:22.687Z,8.98
2022-09-12T07:59:52.820Z,8.70
2022-09-12T08:02:20.250Z,8.85
2022-09-12T08:04:48.151Z,8.18
2022-09-12T08:07:15.199Z,7.80
2022-09-12T08:09:41.799Z,7.93
2022-09-12T08:12:08.463Z,9.55
2022-09-12T08:14:35.000Z,8.95
2022-09-12T08:17:01.570Z,9.35
2022-09-12T08:19:28.084Z,8.90
2022-09-12T08:21:54.659Z,9.43
2022-09-12T08:24:21.244Z,8.73
2022-09-12T08:26:47.833Z,8.48
2022-09-12T08:29:14.547Z,7.75
2022-09-12T08:31:42.543Z,8.40
2022-09-12T08:34:09.493Z,7.82
2022-09-12T08:36:36.397Z,7.47
2022-09-12T08:39:06.069Z,6.47
2022-09-12T08:41:34.832Z,6.30
2022-09-12T08:44:42.955Z,6.57
2022-09-12T08:47:22.741Z,6.72
2022-09-12T08:50:00.973Z,6.80
2022-09-12T08:52:50.709Z,6.75
2022-09-12T08:55:23.273Z,6.05
2022-09-12T08:57:49.837Z,6.25
2022-09-12T09:00:17.174Z,5.32
2022-09-12T09:02:56.046Z,5.47
2022-09-12T09:05:56.723Z,5.25
2022-09-12T09:08:42.023Z,4.70
2022-09-12T09:11:08.670Z,5.07
2022-09-12T09:13:56.619Z,5.05
2022-09-12T09:16:35.061Z,4.32
2022-09-12T09:19:04.944Z,4.40
2022-09-12T09:21:36.695Z,3.97
2022-09-12T09:24:12.167Z,3.60
2022-09-12T09:27:01.048Z,3.70
2022-09-12T09:29:35.000Z,4.07
2022-09-12T09:32:01.826Z,3.63
2022-09-12T09:34:31.769Z,3.40
2022-09-12T09:37:34.627Z,3.17
2022-09-12T09:40:10.554Z,3.15
2022-09-12T09:42:53.481Z,3.50
2022-09-12T09:45:21.315Z,3.17
2022-09-12T09:48:04.463Z,3.15
2022-09-12T09:50:31.053Z,3.78
2022-09-12T09:52:57.832Z,3.20
2022-09-12T09:55:27.195Z,3.00
2022-09-12T09:57:53.898Z,2.85
2022-09-12T10:00:31.668Z,2.92
2022-09-12T10:03:13.822Z,3.00
2022-09-12T10:05:53.935Z,2.50
2022-09-12T10:08:41.216Z,2.30
2022-09-12T10:11:15.646Z,1.90
2022-09-12T10:13:43.555Z,2.25
2022-09-12T10:16:30.389Z,2.10
2022-09-12T10:18:58.662Z,2.50
2022-09-12T10:21:33.330Z,2.92
2022-09-12T10:24:16.642Z,2.10
2022-09-12T10:26:43.211Z,2.05
2022-09-12T10:29:19.032Z,2.05
2022-09-12T10:31:57.471Z,2.15
2022-09-12T10:34:25.707Z,2.10
2022-09-12T10:36:54.185Z,2.10
2022-09-12T10:39:20.811Z,1.90
2022-09-12T10:41:47.436Z,2.25
2022-09-12T10:44:19.904Z,2.17
2022-09-12T10:46:47.077Z,2.10
2022-09-12T10:49:29.080Z,2.33
2022-09-12T10:51:56.768Z,2.70
2022-09-12T10:54:25.107Z,2.10
2022-09-12T10:56:57.745Z,2.28
2022-09-12T11:02:26.553Z,2.13
2022-09-12T11:05:05.228Z,2.40
2022-09-12T11:08:14.323Z,2.00
2022-09-12T11:11:08.545Z,1.98
2022-09-12T11:13:50.416Z,2.00
2022-09-12T11:16:43.053Z,1.57
2022-09-12T11:19:43.742Z,1.83
2022-09-12T11:22:31.880Z,1.80
2022-09-12T11:24:58.640Z,2.08
2022-09-12T11:27:38.054Z,2.05
2022-09-12T11:30:22.657Z,2.85
2022-09-12T11:33:00.268Z,2.53
2022-09-12T11:35:31.543Z,2.72
2022-09-12T11:38:08.369Z,2.00
2022-09-12T11:40:34.879Z,1.80
2022-09-12T11:43:23.890Z,1.60
2022-09-12T11:45:51.670Z,2.65
2022-09-12T11:48:38.697Z,1.88
2022-09-12T11:51:07.158Z,1.50
2022-09-12T11:53:38.221Z,1.67
2022-09-12T11:56:09.473Z,1.30
2022-09-12T11:58:37.126Z,1.60
2022-09-12T12:01:12.838Z,1.20
2022-09-12T12:03:44.583Z,1.30
2022-09-12T12:06:19.247Z,1.20
2022-09-12T12:08:46.608Z,1.20
2022-09-12T12:11:15.632Z,1.95
2022-09-12T12:13:51.553Z,1.30
2022-09-12T12:16:18.204Z,2.78
2022-09-12T12:18:44.824Z,1.50
2022-09-12T12:21:32.159Z,1.45
2022-09-12T12:24:08.743Z,2.42
2022-09-12T12:26:41.216Z,1.27
2022-09-12T12:29:16.789Z,1.20
2022-09-12T12:31:58.733Z,1.00
2022-09-12T12:34:28.010Z,1.20
2022-09-12T12:36:54.645Z,1.23
2022-09-12T12:39:33.342Z,1.00
2022-09-12T12:42:00.515Z,0.93
2022-09-12T12:44:45.153Z,0.80
2022-09-12T12:47:23.191Z,0.80
2022-09-12T12:49:55.636Z,0.90
2022-09-12T12:52:22.224Z,1.00
2022-09-12T12:54:54.263Z,0.98
2022-09-12T12:57:26.548Z,0.80
2022-09-12T13:00:07.123Z,0.70
2022-09-12T13:02:36.884Z,0.70
2022-09-12T13:05:06.252Z,1.00
2022-09-12T13:07:36.209Z,0.60
2022-09-12T13:10:04.766Z,0.70
2022-09-12T13:12:34.396Z,0.85
2022-09-12T13:15:02.081Z,0.70
2022-09-12T13:17:38.530Z,0.75
2022-09-12T13:20:33.600Z,1.02
2022-09-12T13:23:00.473Z,0.80
2022-09-12T13:25:34.773Z,0.60
2022-09-12T13:28:18.495Z,0.52
2022-09-12T13:30:47.561Z,0.60
2022-09-12T13:33:23.805Z,0.60
2022-09-12T13:36:21.478Z,0.65
2022-09-12T13:39:18.425Z,0.60
2022-09-12T13:42:03.509Z,0.80
2022-09-12T13:44:30.290Z,0.65
2022-09-12T13:47:00.473Z,0.60
2022-09-12T13:49:35.250Z,0.60
2022-09-12T13:52:09.215Z,0.80
2022-09-12T13:54:37.978Z,0.70
2022-09-12T13:57:05.338Z,0.47
2022-09-12T13:59:39.855Z,0.57
2022-09-12T14:02:23.423Z,0.93
2022-09-12T14:05:10.302Z,0.50
2022-09-12T14:07:59.657Z,0.50
2022-09-12T14:10:31.888Z,0.50
2022-09-12T14:12:59.080Z,0.50
2022-09-12T14:15:28.829Z,0.60
2022-09-12T14:17:59.742Z,0.50
2022-09-12T14:20:26.455Z,0.90
2022-09-12T14:22:53.325Z,0.40
2022-09-12T14:25:22.246Z,0.40
2022-09-12T14:27:52.557Z,0.70
2022-09-12T14:30:22.057Z,0.60
2022-09-12T14:33:06.548Z,0.60
2022-09-12T14:35:33.273Z,0.60
2022-09-12T14:38:08.849Z,0.45
2022-09-12T14:40:41.734Z,0.75
2022-09-12T14:43:20.762Z,0.60
2022-09-12T14:45:55.769Z,0.60
2022-09-12T14:48:22.519Z,0.70
2022-09-12T14:50:52.668Z,0.55
2022-09-12T14:53:19.130Z,0.73
2022-09-12T14:55:50.065Z,0.60
2022-09-12T14:58:26.348Z,0.80
2022-09-12T15:00:53.972Z,0.60
2022-09-12T15:03:49.314Z,0.50
2022-09-12T15:06:25.587Z,0.68
2022-09-12T15:08:53.923Z,0.68
2022-09-12T15:11:21.157Z,0.63
2022-09-12T15:13:47.897Z,0.60
2022-09-12T15:16:14.822Z,0.60
2022-09-12T15:18:41.494Z,0.50
2022-09-12T15:21:08.765Z,0.50
2022-09-12T15:23:52.086Z,0.65
2022-09-12T15:26:23.791Z,0.98
2022-09-12T15:28:50.932Z,0.80
2022-09-12T15:31:27.309Z,0.52
2022-09-12T15:33:54.558Z,0.57
2022-09-12T15:36:23.048Z,0.68
2022-09-12T15:38:50.161Z,0.55
2022-09-12T15:41:18.627Z,0.50
2022-09-12T15:43:45.698Z,0.70
2022-09-12T15:46:13.845Z,0.60
2022-09-12T15:48:40.647Z,0.65
2022-09-12T15:51:15.769Z,0.60
2022-09-12T15:53:43.034Z,0.68
2022-09-12T15:56:09.717Z,0.60
2022-09-12T15:58:36.376Z,0.73
2022-09-12T16:01:03.021Z,0.80
2022-09-12T16:03:29.873Z,0.82
2022-09-12T16:06:01.641Z,0.55
2022-09-12T16:08:30.028Z,0.73
2022-09-12T16:10:57.851Z,0.85
2022-09-12T16:13:24.697Z,0.80
2022-09-12T16:15:51.778Z,0.70
2022-09-12T16:18:19.036Z,0.88
2022-09-12T16:20:45.634Z,0.60
2022-09-12T16:23:12.847Z,1.00
2022-09-12T16:25:40.202Z,0.90
2022-09-12T16:28:07.134Z,0.80
2022-09-12T16:30:34.071Z,0.75
2022-09-12T16:33:00.812Z,0.80
2022-09-12T16:35:27.357Z,0.90
2022-09-12T16:37:53.944Z,2.00
2022-09-12T16:40:20.595Z,1.50
2022-09-12T16:42:47.264Z,1.17
2022-09-12T16:45:13.906Z,0.73
2022-09-12T16:47:40.523Z,0.80
2022-09-12T16:50:07.790Z,0.80
2022-09-12T16:52:35.109Z,0.90
2022-09-12T16:55:01.647Z,0.82
2022-09-12T16:57:28.311Z,0.90
2022-09-12T16:59:55.270Z,0.88
2022-09-12T17:02:21.887Z,0.70
2022-09-12T17:04:48.874Z,1.23
2022-09-12T17:07:15.446Z,1.00
2022-09-12T17:09:45.068Z,0.95
2022-09-12T17:12:14.315Z,1.05
2022-09-12T17:14:40.931Z,1.20
2022-09-12T17:17:07.536Z,0.85
2022-09-12T17:19:34.188Z,1.00
2022-09-12T17:22:00.753Z,1.10
2022-09-12T17:24:27.401Z,1.27
2022-09-12T17:26:54.245Z,1.30
2022-09-12T17:29:20.845Z,1.20
2022-09-12T17:31:47.621Z,1.30
2022-09-12T17:34:14.679Z,1.35
2022-09-12T17:36:44.402Z,1.17
2022-09-12T17:39:12.154Z,1.23
2022-09-12T17:41:38.846Z,1.23
2022-09-12T17:44:05.996Z,1.00
2022-09-12T17:46:37.112Z,1.25
2022-09-12T17:49:06.879Z,1.27
2022-09-12T17:51:33.540Z,1.15
2022-09-12T17:54:01.958Z,1.40
2022-09-12T17:56:30.783Z,1.33
2022-09-12T17:58:58.427Z,1.20
2022-09-12T18:01:44.887Z,1.20
2022-09-12T18:04:11.581Z,1.33
2022-09-12T18:06:38.390Z,1.38
2022-09-12T18:09:07.121Z,1.23
2022-09-12T18:11:34.231Z,1.20
2022-09-12T18:14:01.121Z,1.48
2022-09-12T18:16:28.622Z,1.63
2022-09-12T18:18:55.633Z,1.50
2022-09-12T18:21:22.295Z,1.35
2022-09-12T18:23:48.876Z,1.80
2022-09-12T18:26:15.525Z,2.17
2022-09-12T18:28:43.509Z,1.90
2022-09-12T18:31:18.148Z,1.48
2022-09-12T18:33:45.027Z,1.50
2022-09-12T18:36:12.446Z,1.60
2022-09-12T18:38:39.468Z,1.52
2022-09-12T18:41:17.491Z,2.00
2022-09-12T18:43:44.266Z,2.00
2022-09-12T18:46:15.934Z,1.52
2022-09-12T18:48:42.896Z,1.92
2022-09-12T18:51:20.102Z,1.67
2022-09-12T18:53:52.110Z,2.35
2022-09-12T18:56:19.098Z,1.90
2022-09-12T18:58:52.886Z,1.92
2022-09-12T19:01:27.885Z,1.90
2022-09-12T19:03:54.952Z,1.80
2022-09-12T19:06:24.261Z,1.80
2022-09-12T19:08:51.708Z,1.63
2022-09-12T19:11:19.036Z,2.00
2022-09-12T19:13:47.199Z,1.65
2022-09-12T19:16:16.343Z,1.70
2022-09-12T19:18:43.035Z,1.70
2022-09-12T19:21:15.015Z,1.70
2022-09-12T19:23:41.766Z,1.60
2022-09-12T19:26:09.804Z,1.55
2022-09-12T19:28:36.456Z,1.70
2022-09-12T19:31:07.441Z,1.70
2022-09-12T19:33:34.448Z,2.20
2022-09-12T19:36:13.727Z,1.95
2022-09-12T19:38:48.743Z,1.77
2022-09-12T19:41:15.500Z,1.60
2022-09-12T19:43:42.125Z,1.58
2022-09-12T19:46:08.880Z,1.58
2022-09-12T19:48:35.562Z,1.70
2022-09-12T19:51:05.237Z,1.77
2022-09-12T19:53:31.870Z,1.95
2022-09-12T19:56:02.924Z,1.85
2022-09-12T19:58:30.220Z,1.67
2022-09-12T20:00:57.220Z,1.85
2022-09-12T20:03:23.826Z,1.55
2022-09-12T20:05:50.427Z,1.85
2022-09-12T20:08:17.130Z,2.25
2022-09-12T20:10:43.865Z,1.90
2022-09-12T20:13:10.580Z,2.15
2022-09-12T20:15:37.355Z,1.80
2022-09-12T20:18:04.054Z,2.03
2022-09-12T20:20:31.004Z,2.00
2022-09-12T20:22:57.555Z,1.92
2022-09-12T20:25:24.105Z,1.88
2022-09-12T20:27:51.270Z,1.83
2022-09-12T20:30:17.837Z,1.90
2022-09-12T20:32:44.684Z,2.03
2022-09-12T20:35:11.395Z,1.83
2022-09-12T20:37:40.077Z,2.33
2022-09-12T20:40:08.321Z,1.88
2022-09-12T20:42:35.160Z,2.00
2022-09-12T20:45:02.092Z,1.75
2022-09-12T20:47:28.668Z,2.67
2022-09-12T20:49:55.237Z,3.22
2022-09-12T20:52:21.785Z,2.35
2022-09-12T20:54:48.301Z,2.17
2022-09-12T20:57:14.855Z,2.30
2022-09-12T20:59:42.559Z,2.00
2022-09-12T21:02:15.422Z,1.88
2022-09-12T21:07:08.689Z,1.98
2022-09-12T21:09:35.220Z,2.05
2022-09-12T21:12:01.949Z,1.90
2022-09-12T21:14:28.496Z,1.95
2022-09-12T21:16:55.066Z,1.88
2022-09-12T21:19:21.605Z,2.40
2022-09-12T21:21:48.160Z,1.70
2022-09-12T21:24:17.525Z,1.98
2022-09-12T21:26:44.113Z,2.30
2022-09-12T21:29:11.080Z,1.90
2022-09-12T21:31:37.668Z,2.20
2022-09-12T21:34:04.253Z,2.00
2022-09-12T21:36:30.817Z,2.00
2022-09-12T21:38:59.083Z,2.03
2022-09-12T21:41:25.749Z,2.17
2022-09-12T21:43:52.369Z,2.55
2022-09-12T21:46:18.995Z,1.95
2022-09-12T21:48:45.651Z,2.45
2022-09-12T21:51:12.197Z,2.20
2022-09-12T21:53:38.944Z,2.10
2022-09-12T21:56:07.478Z,1.92
2022-09-12T21:58:34.401Z,2.00
2022-09-12T22:01:01.561Z,2.00
2022-09-12T22:03:29.057Z,1.80
2022-09-12T22:05:59.699Z,1.75
2022-09-12T22:08:26.531Z,2.08
2022-09-12T22:10:53.079Z,1.80
2022-09-12T22:13:19.625Z,1.90
2022-09-12T22:15:50.865Z,1.95
2022-09-12T22:18:17.768Z,1.55
2022-09-12T22:20:44.481Z,1.88
2022-09-12T22:23:30.992Z,2.35
2022-09-12T22:25:57.581Z,2.00
2022-09-12T22:28:25.186Z,1.77
2022-09-12T22:30:53.304Z,2.17
2022-09-12T22:33:19.915Z,2.08
2022-09-12T22:35:46.438Z,2.47
2022-09-12T22:38:13.242Z,2.42
2022-09-12T22:40:39.760Z,2.30
2022-09-12T22:43:06.305Z,2.05
2022-09-12T22:45:32.849Z,2.50
2022-09-12T22:48:00.974Z,3.05
2022-09-12T22:50:28.110Z,2.58
2022-09-12T22:52:54.749Z,2.60
2022-09-12T22:55:21.285Z,2.47
2022-09-12T22:57:47.861Z,2.58
2022-09-12T23:00:14.755Z,2.40
2022-09-12T23:02:41.430Z,2.40
2022-09-12T23:05:08.251Z,2.35
2022-09-12T23:07:34.792Z,2.30
2022-09-12T23:10:04.349Z,2.30
2022-09-12T23:12:32.020Z,2.33
2022-09-12T23:14:58.572Z,2.30
2022-09-12T23:17:25.142Z,2.70
2022-09-12T23:19:52.380Z,2.75
2022-09-12T23:22:18.934Z,2.30
2022-09-12T23:24:45.880Z,2.33
2022-09-12T23:27:12.471Z,2.50
2022-09-12T23:29:39.038Z,2.33
2022-09-12T23:32:05.844Z,2.58
2022-09-12T23:34:33.553Z,2.38
2022-09-12T23:37:00.195Z,2.15
2022-09-12T23:39:26.741Z,2.30
2022-09-12T23:41:53.340Z,2.30
2022-09-12T23:44:19.869Z,2.40
2022-09-12T23:46:46.391Z,2.65
2022-09-12T23:49:12.972Z,2.25
2022-09-12T23:51:39.700Z,2.05
2022-09-12T23:54:06.427Z,2.03
2022-09-12T23:56:32.999Z,2.30
2022-09-12T23:58:59.553Z,2.20
